sensor_id;sensor_type;location;lat;lon;timestamp;P1;durP1;ratioP1;P2;durP2;ratioP2
6452;SDS011;3259;51.080;13.712;2022-08-19T00:01:01;7.25;;;6.60;;
6452;SDS011;3259;51.080;13.712;2022-08-19T00:03:49;6.80;;;6.13;;
6452;SDS011;3259;51.080;13.712;2022-08-19T00:06:40;6.50;;;5.93;;
6452;SDS011;3259;51.080;13.712;2022-08-19T00:09:30;9.32;;;7.22;;
6452;SDS011;3259;51.080;13.712;2022-08-19T00:12:19;7.13;;;6.53;;
6452;SDS011;3259;51.080;13.712;2022-08-19T00:15:09;7.30;;;6.60;;
6452;SDS011;3259;51.080;13.712;2022-08-19T00:18:00;8.85;;;7.20;;
6452;SDS011;3259;51.080;13.712;2022-08-19T00:20:49;8.00;;;6.22;;
6452;SDS011;3259;51.080;13.712;2022-08-19T00:23:39;7.20;;;6.60;;
6452;SDS011;3259;51.080;13.712;2022-08-19T00:26:28;9.82;;;6.90;;
6452;SDS011;3259;51.080;13.712;2022-08-19T00:29:18;8.50;;;7.60;;
6452;SDS011;3259;51.080;13.712;2022-08-19T00:32:07;8.93;;;7.40;;
6452;SDS011;3259;51.080;13.712;2022-08-19T00:34:59;9.00;;;6.68;;
6452;SDS011;3259;51.080;13.712;2022-08-19T00:37:48;7.70;;;7.00;;
6452;SDS011;3259;51.080;13.712;2022-08-19T00:40:38;7.90;;;7.10;;
6452;SDS011;3259;51.080;13.712;2022-08-19T00:43:27;8.23;;;7.47;;
6452;SDS011;3259;51.080;13.712;2022-08-19T00:46:16;8.38;;;7.68;;
6452;SDS011;3259;51.080;13.712;2022-08-19T00:49:06;8.07;;;7.25;;
6452;SDS011;3259;51.080;13.712;2022-08-19T00:52:00;13.55;;;8.55;;
6452;SDS011;3259;51.080;13.712;2022-08-19T00:54:51;7.75;;;6.95;;
6452;SDS011;3259;51.080;13.712;2022-08-19T00:57:42;8.60;;;7.80;;
6452;SDS011;3259;51.080;13.712;2022-08-19T01:00:34;8.30;;;7.47;;
6452;SDS011;3259;51.080;13.712;2022-08-19T01:03:23;8.50;;;7.72;;
6452;SDS011;3259;51.080;13.712;2022-08-19T01:06:12;9.68;;;7.38;;
6452;SDS011;3259;51.080;13.712;2022-08-19T01:09:05;8.07;;;7.25;;
6452;SDS011;3259;51.080;13.712;2022-08-19T01:11:54;8.38;;;7.45;;
6452;SDS011;3259;51.080;13.712;2022-08-19T01:14:44;9.38;;;7.63;;
6452;SDS011;3259;51.080;13.712;2022-08-19T01:17:33;9.27;;;7.30;;
6452;SDS011;3259;51.080;13.712;2022-08-19T01:20:22;9.40;;;8.52;;
6452;SDS011;3259;51.080;13.712;2022-08-19T01:23:12;10.18;;;8.38;;
6452;SDS011;3259;51.080;13.712;2022-08-19T01:26:01;10.80;;;9.35;;
6452;SDS011;3259;51.080;13.712;2022-08-19T01:28:50;9.88;;;8.90;;
6452;SDS011;3259;51.080;13.712;2022-08-19T01:31:45;9.95;;;7.93;;
6452;SDS011;3259;51.080;13.712;2022-08-19T01:34:33;9.63;;;8.73;;
6452;SDS011;3259;51.080;13.712;2022-08-19T01:37:22;13.40;;;9.68;;
6452;SDS011;3259;51.080;13.712;2022-08-19T01:40:14;9.35;;;8.30;;
6452;SDS011;3259;51.080;13.712;2022-08-19T01:43:03;9.40;;;7.95;;
6452;SDS011;3259;51.080;13.712;2022-08-19T01:45:52;9.35;;;8.43;;
6452;SDS011;3259;51.080;13.712;2022-08-19T01:48:41;8.93;;;8.13;;
6452;SDS011;3259;51.080;13.712;2022-08-19T01:51:31;11.93;;;9.02;;
6452;SDS011;3259;51.080;13.712;2022-08-19T01:54:25;10.93;;;7.88;;
6452;SDS011;3259;51.080;13.712;2022-08-19T01:57:15;8.00;;;7.05;;
6452;SDS011;3259;51.080;13.712;2022-08-19T02:00:04;10.40;;;8.25;;
6452;SDS011;3259;51.080;13.712;2022-08-19T02:02:55;8.57;;;7.78;;
6452;SDS011;3259;51.080;13.712;2022-08-19T02:05:43;8.90;;;7.65;;
6452;SDS011;3259;51.080;13.712;2022-08-19T02:08:38;10.05;;;8.05;;
6452;SDS011;3259;51.080;13.712;2022-08-19T02:11:28;9.18;;;8.27;;
6452;SDS011;3259;51.080;13.712;2022-08-19T02:14:23;9.27;;;8.38;;
6452;SDS011;3259;51.080;13.712;2022-08-19T02:17:12;9.98;;;7.93;;
6452;SDS011;3259;51.080;13.712;2022-08-19T02:20:00;9.25;;;8.38;;
6452;SDS011;3259;51.080;13.712;2022-08-19T02:22:49;8.30;;;7.60;;
6452;SDS011;3259;51.080;13.712;2022-08-19T02:25:38;8.60;;;7.75;;
6452;SDS011;3259;51.080;13.712;2022-08-19T02:28:27;10.55;;;7.50;;
6452;SDS011;3259;51.080;13.712;2022-08-19T02:31:19;9.40;;;8.45;;
6452;SDS011;3259;51.080;13.712;2022-08-19T02:34:11;9.30;;;8.00;;
6452;SDS011;3259;51.080;13.712;2022-08-19T02:36:59;9.65;;;8.10;;
6452;SDS011;3259;51.080;13.712;2022-08-19T02:39:49;11.52;;;7.85;;
6452;SDS011;3259;51.080;13.712;2022-08-19T02:42:37;10.07;;;8.05;;
6452;SDS011;3259;51.080;13.712;2022-08-19T02:45:25;8.38;;;7.57;;
6452;SDS011;3259;51.080;13.712;2022-08-19T02:48:16;11.45;;;8.43;;
6452;SDS011;3259;51.080;13.712;2022-08-19T02:51:07;9.23;;;8.32;;
6452;SDS011;3259;51.080;13.712;2022-08-19T02:53:56;15.90;;;8.27;;
6452;SDS011;3259;51.080;13.712;2022-08-19T02:56:45;10.32;;;7.90;;
6452;SDS011;3259;51.080;13.712;2022-08-19T02:59:33;11.32;;;7.97;;
6452;SDS011;3259;51.080;13.712;2022-08-19T03:02:22;8.30;;;7.47;;
6452;SDS011;3259;51.080;13.712;2022-08-19T03:05:12;9.23;;;8.32;;
6452;SDS011;3259;51.080;13.712;2022-08-19T03:08:01;8.15;;;7.35;;
6452;SDS011;3259;51.080;13.712;2022-08-19T03:10:50;9.38;;;8.38;;
6452;SDS011;3259;51.080;13.712;2022-08-19T03:13:39;8.65;;;7.75;;
6452;SDS011;3259;51.080;13.712;2022-08-19T03:16:30;10.43;;;8.30;;
6452;SDS011;3259;51.080;13.712;2022-08-19T03:19:20;10.35;;;9.18;;
6452;SDS011;3259;51.080;13.712;2022-08-19T03:22:10;9.38;;;8.45;;
6452;SDS011;3259;51.080;13.712;2022-08-19T03:24:59;8.82;;;8.02;;
6452;SDS011;3259;51.080;13.712;2022-08-19T03:27:47;11.07;;;8.38;;
6452;SDS011;3259;51.080;13.712;2022-08-19T03:30:36;10.07;;;8.98;;
6452;SDS011;3259;51.080;13.712;2022-08-19T03:33:29;11.10;;;9.80;;
6452;SDS011;3259;51.080;13.712;2022-08-19T03:36:21;10.80;;;9.48;;
6452;SDS011;3259;51.080;13.712;2022-08-19T03:39:13;10.18;;;8.50;;
6452;SDS011;3259;51.080;13.712;2022-08-19T03:42:02;10.05;;;8.45;;
6452;SDS011;3259;51.080;13.712;2022-08-19T03:45:11;9.50;;;8.27;;
6452;SDS011;3259;51.080;13.712;2022-08-19T03:48:00;10.52;;;8.77;;
6452;SDS011;3259;51.080;13.712;2022-08-19T03:50:48;11.35;;;9.75;;
6452;SDS011;3259;51.080;13.712;2022-08-19T03:53:37;9.52;;;8.32;;
6452;SDS011;3259;51.080;13.712;2022-08-19T03:56:27;9.70;;;8.80;;
6452;SDS011;3259;51.080;13.712;2022-08-19T03:59:17;13.80;;;9.55;;
6452;SDS011;3259;51.080;13.712;2022-08-19T04:02:08;9.85;;;8.77;;
6452;SDS011;3259;51.080;13.712;2022-08-19T04:04:58;8.20;;;7.38;;
6452;SDS011;3259;51.080;13.712;2022-08-19T04:07:47;9.38;;;8.48;;
6452;SDS011;3259;51.080;13.712;2022-08-19T04:10:36;9.25;;;8.35;;
6452;SDS011;3259;51.080;13.712;2022-08-19T04:13:26;10.50;;;8.40;;
6452;SDS011;3259;51.080;13.712;2022-08-19T04:16:14;10.93;;;8.63;;
6452;SDS011;3259;51.080;13.712;2022-08-19T04:19:04;11.20;;;8.85;;
6452;SDS011;3259;51.080;13.712;2022-08-19T04:21:53;12.27;;;8.88;;
6452;SDS011;3259;51.080;13.712;2022-08-19T04:24:42;11.23;;;8.95;;
6452;SDS011;3259;51.080;13.712;2022-08-19T04:27:31;9.57;;;8.68;;
6452;SDS011;3259;51.080;13.712;2022-08-19T04:30:21;10.95;;;9.45;;
6452;SDS011;3259;51.080;13.712;2022-08-19T04:33:10;11.90;;;9.07;;
6452;SDS011;3259;51.080;13.712;2022-08-19T04:35:59;9.32;;;8.45;;
6452;SDS011;3259;51.080;13.712;2022-08-19T04:38:48;10.40;;;8.88;;
6452;SDS011;3259;51.080;13.712;2022-08-19T04:41:37;8.93;;;8.13;;
6452;SDS011;3259;51.080;13.712;2022-08-19T04:44:39;11.85;;;9.10;;
6452;SDS011;3259;51.080;13.712;2022-08-19T04:47:33;11.75;;;10.00;;
6452;SDS011;3259;51.080;13.712;2022-08-19T04:50:42;13.23;;;9.10;;
6452;SDS011;3259;51.080;13.712;2022-08-19T04:53:31;10.80;;;9.70;;
6452;SDS011;3259;51.080;13.712;2022-08-19T04:56:23;10.82;;;9.88;;
6452;SDS011;3259;51.080;13.712;2022-08-19T04:59:13;10.70;;;9.02;;
6452;SDS011;3259;51.080;13.712;2022-08-19T05:02:02;9.35;;;8.20;;
6452;SDS011;3259;51.080;13.712;2022-08-19T05:04:57;8.60;;;7.70;;
6452;SDS011;3259;51.080;13.712;2022-08-19T05:07:47;11.05;;;8.90;;
6452;SDS011;3259;51.080;13.712;2022-08-19T05:10:36;11.32;;;7.25;;
6452;SDS011;3259;51.080;13.712;2022-08-19T05:13:25;8.25;;;7.53;;
6452;SDS011;3259;51.080;13.712;2022-08-19T05:16:15;8.43;;;7.63;;
6452;SDS011;3259;51.080;13.712;2022-08-19T05:19:05;8.45;;;7.35;;
6452;SDS011;3259;51.080;13.712;2022-08-19T05:22:24;7.32;;;6.65;;
6452;SDS011;3259;51.080;13.712;2022-08-19T05:25:25;9.32;;;6.90;;
6452;SDS011;3259;51.080;13.712;2022-08-19T05:28:13;12.30;;;6.88;;
6452;SDS011;3259;51.080;13.712;2022-08-19T05:31:02;8.65;;;6.82;;
6452;SDS011;3259;51.080;13.712;2022-08-19T05:33:50;6.65;;;5.95;;
6452;SDS011;3259;51.080;13.712;2022-08-19T05:36:40;9.23;;;6.47;;
6452;SDS011;3259;51.080;13.712;2022-08-19T05:39:33;7.00;;;6.28;;
6452;SDS011;3259;51.080;13.712;2022-08-19T05:42:23;8.90;;;6.30;;
6452;SDS011;3259;51.080;13.712;2022-08-19T05:45:13;6.28;;;5.68;;
6452;SDS011;3259;51.080;13.712;2022-08-19T05:48:01;8.15;;;6.07;;
6452;SDS011;3259;51.080;13.712;2022-08-19T05:50:50;6.20;;;5.65;;
6452;SDS011;3259;51.080;13.712;2022-08-19T05:53:38;6.97;;;6.07;;
6452;SDS011;3259;51.080;13.712;2022-08-19T05:56:28;7.60;;;6.80;;
6452;SDS011;3259;51.080;13.712;2022-08-19T05:59:18;5.80;;;5.28;;
6452;SDS011;3259;51.080;13.712;2022-08-19T06:02:10;8.52;;;6.30;;
6452;SDS011;3259;51.080;13.712;2022-08-19T06:05:00;6.45;;;5.68;;
6452;SDS011;3259;51.080;13.712;2022-08-19T06:07:49;5.88;;;5.35;;
6452;SDS011;3259;51.080;13.712;2022-08-19T06:10:37;5.97;;;5.45;;
6452;SDS011;3259;51.080;13.712;2022-08-19T06:13:27;5.85;;;5.28;;
6452;SDS011;3259;51.080;13.712;2022-08-19T06:16:20;5.88;;;5.38;;
6452;SDS011;3259;51.080;13.712;2022-08-19T06:19:10;5.97;;;5.38;;
6452;SDS011;3259;51.080;13.712;2022-08-19T06:22:01;5.60;;;5.05;;
6452;SDS011;3259;51.080;13.712;2022-08-19T06:24:49;5.15;;;4.75;;
6452;SDS011;3259;51.080;13.712;2022-08-19T06:27:39;5.65;;;5.15;;
6452;SDS011;3259;51.080;13.712;2022-08-19T06:30:49;5.32;;;4.85;;
6452;SDS011;3259;51.080;13.712;2022-08-19T06:33:38;5.03;;;4.57;;
6452;SDS011;3259;51.080;13.712;2022-08-19T06:36:27;5.63;;;4.80;;
6452;SDS011;3259;51.080;13.712;2022-08-19T06:39:19;4.68;;;4.38;;
6452;SDS011;3259;51.080;13.712;2022-08-19T06:42:09;6.55;;;4.55;;
6452;SDS011;3259;51.080;13.712;2022-08-19T06:45:04;4.93;;;4.45;;
6452;SDS011;3259;51.080;13.712;2022-08-19T06:47:57;5.78;;;5.18;;
6452;SDS011;3259;51.080;13.712;2022-08-19T06:50:47;6.72;;;4.85;;
6452;SDS011;3259;51.080;13.712;2022-08-19T06:53:38;5.57;;;5.10;;
6452;SDS011;3259;51.080;13.712;2022-08-19T06:56:28;4.60;;;4.20;;
6452;SDS011;3259;51.080;13.712;2022-08-19T06:59:20;4.82;;;4.43;;
6452;SDS011;3259;51.080;13.712;2022-08-19T07:02:13;5.28;;;4.72;;
6452;SDS011;3259;51.080;13.712;2022-08-19T07:05:08;6.15;;;4.60;;
6452;SDS011;3259;51.080;13.712;2022-08-19T07:07:59;4.78;;;4.38;;
6452;SDS011;3259;51.080;13.712;2022-08-19T07:10:50;4.43;;;4.13;;
6452;SDS011;3259;51.080;13.712;2022-08-19T07:13:39;6.70;;;4.63;;
6452;SDS011;3259;51.080;13.712;2022-08-19T07:16:30;5.38;;;4.90;;
6452;SDS011;3259;51.080;13.712;2022-08-19T07:19:18;5.78;;;5.22;;
6452;SDS011;3259;51.080;13.712;2022-08-19T07:22:09;4.97;;;4.57;;
6452;SDS011;3259;51.080;13.712;2022-08-19T07:24:58;5.35;;;4.95;;
6452;SDS011;3259;51.080;13.712;2022-08-19T07:27:49;5.47;;;5.07;;
6452;SDS011;3259;51.080;13.712;2022-08-19T07:30:40;5.22;;;4.72;;
6452;SDS011;3259;51.080;13.712;2022-08-19T07:33:29;5.32;;;4.82;;
6452;SDS011;3259;51.080;13.712;2022-08-19T07:36:20;5.78;;;5.18;;
6452;SDS011;3259;51.080;13.712;2022-08-19T07:39:15;5.65;;;5.07;;
6452;SDS011;3259;51.080;13.712;2022-08-19T07:42:06;5.00;;;4.60;;
6452;SDS011;3259;51.080;13.712;2022-08-19T07:44:58;6.05;;;5.47;;
6452;SDS011;3259;51.080;13.712;2022-08-19T07:47:47;5.15;;;4.68;;
6452;SDS011;3259;51.080;13.712;2022-08-19T07:50:36;5.00;;;4.60;;
6452;SDS011;3259;51.080;13.712;2022-08-19T07:53:25;5.47;;;4.82;;
6452;SDS011;3259;51.080;13.712;2022-08-19T07:56:15;6.50;;;4.85;;
6452;SDS011;3259;51.080;13.712;2022-08-19T07:59:05;5.18;;;4.78;;
6452;SDS011;3259;51.080;13.712;2022-08-19T08:01:55;6.00;;;5.40;;
6452;SDS011;3259;51.080;13.712;2022-08-19T08:04:46;5.53;;;5.03;;
6452;SDS011;3259;51.080;13.712;2022-08-19T08:07:52;5.65;;;5.10;;
6452;SDS011;3259;51.080;13.712;2022-08-19T08:10:58;5.65;;;5.25;;
6452;SDS011;3259;51.080;13.712;2022-08-19T08:13:48;5.10;;;4.70;;
6452;SDS011;3259;51.080;13.712;2022-08-19T08:16:50;7.07;;;4.90;;
6452;SDS011;3259;51.080;13.712;2022-08-19T08:19:39;4.95;;;4.55;;
6452;SDS011;3259;51.080;13.712;2022-08-19T08:22:29;5.78;;;5.18;;
6452;SDS011;3259;51.080;13.712;2022-08-19T08:25:35;6.78;;;5.38;;
6452;SDS011;3259;51.080;13.712;2022-08-19T08:28:24;6.53;;;5.20;;
6452;SDS011;3259;51.080;13.712;2022-08-19T08:31:16;5.35;;;4.95;;
6452;SDS011;3259;51.080;13.712;2022-08-19T08:34:06;5.05;;;4.65;;
6452;SDS011;3259;51.080;13.712;2022-08-19T08:36:55;4.60;;;4.28;;
6452;SDS011;3259;51.080;13.712;2022-08-19T08:39:43;5.15;;;4.10;;
6452;SDS011;3259;51.080;13.712;2022-08-19T08:42:34;4.75;;;4.35;;
6452;SDS011;3259;51.080;13.712;2022-08-19T08:45:24;4.60;;;4.20;;
6452;SDS011;3259;51.080;13.712;2022-08-19T08:48:20;5.15;;;4.75;;
6452;SDS011;3259;51.080;13.712;2022-08-19T08:51:14;4.55;;;4.15;;
6452;SDS011;3259;51.080;13.712;2022-08-19T08:54:06;4.65;;;4.25;;
6452;SDS011;3259;51.080;13.712;2022-08-19T08:56:59;4.90;;;4.43;;
6452;SDS011;3259;51.080;13.712;2022-08-19T08:59:47;4.55;;;4.15;;
6452;SDS011;3259;51.080;13.712;2022-08-19T09:02:38;4.78;;;4.40;;
6452;SDS011;3259;51.080;13.712;2022-08-19T09:05:45;4.65;;;4.28;;
6452;SDS011;3259;51.080;13.712;2022-08-19T09:08:45;5.22;;;4.82;;
6452;SDS011;3259;51.080;13.712;2022-08-19T09:11:46;5.22;;;4.72;;
6452;SDS011;3259;51.080;13.712;2022-08-19T09:14:39;4.65;;;4.28;;
6452;SDS011;3259;51.080;13.712;2022-08-19T09:17:37;5.18;;;4.63;;
6452;SDS011;3259;51.080;13.712;2022-08-19T09:20:26;4.03;;;3.72;;
6452;SDS011;3259;51.080;13.712;2022-08-19T09:23:15;5.20;;;4.63;;
6452;SDS011;3259;51.080;13.712;2022-08-19T09:26:13;4.45;;;4.15;;
6452;SDS011;3259;51.080;13.712;2022-08-19T09:29:05;4.43;;;4.13;;
6452;SDS011;3259;51.080;13.712;2022-08-19T09:31:55;4.70;;;4.40;;
6452;SDS011;3259;51.080;13.712;2022-08-19T09:34:44;4.20;;;3.92;;
6452;SDS011;3259;51.080;13.712;2022-08-19T09:37:37;4.90;;;4.43;;
6452;SDS011;3259;51.080;13.712;2022-08-19T09:40:27;6.00;;;5.28;;
6452;SDS011;3259;51.080;13.712;2022-08-19T09:43:23;4.82;;;4.53;;
6452;SDS011;3259;51.080;13.712;2022-08-19T09:46:19;5.00;;;4.60;;
6452;SDS011;3259;51.080;13.712;2022-08-19T09:49:09;5.18;;;4.75;;
6452;SDS011;3259;51.080;13.712;2022-08-19T09:51:59;5.30;;;4.88;;
6452;SDS011;3259;51.080;13.712;2022-08-19T09:54:47;6.00;;;5.50;;
6452;SDS011;3259;51.080;13.712;2022-08-19T09:57:41;4.72;;;4.32;;
6452;SDS011;3259;51.080;13.712;2022-08-19T10:00:30;5.07;;;4.50;;
6452;SDS011;3259;51.080;13.712;2022-08-19T10:03:18;5.85;;;4.68;;
6452;SDS011;3259;51.080;13.712;2022-08-19T10:06:11;5.10;;;4.70;;
6452;SDS011;3259;51.080;13.712;2022-08-19T10:09:02;4.50;;;4.20;;
6452;SDS011;3259;51.080;13.712;2022-08-19T10:11:54;5.20;;;4.80;;
6452;SDS011;3259;51.080;13.712;2022-08-19T10:14:44;4.95;;;4.55;;
6452;SDS011;3259;51.080;13.712;2022-08-19T10:17:33;5.15;;;4.72;;
6452;SDS011;3259;51.080;13.712;2022-08-19T10:20:22;4.72;;;4.35;;
6452;SDS011;3259;51.080;13.712;2022-08-19T10:23:11;5.60;;;4.53;;
6452;SDS011;3259;51.080;13.712;2022-08-19T10:26:01;4.80;;;4.50;;
6452;SDS011;3259;51.080;13.712;2022-08-19T10:28:52;4.68;;;4.22;;
6452;SDS011;3259;51.080;13.712;2022-08-19T10:31:44;4.97;;;4.57;;
6452;SDS011;3259;51.080;13.712;2022-08-19T10:34:48;4.32;;;4.03;;
6452;SDS011;3259;51.080;13.712;2022-08-19T10:37:42;7.35;;;4.68;;
6452;SDS011;3259;51.080;13.712;2022-08-19T10:40:43;5.07;;;4.57;;
6452;SDS011;3259;51.080;13.712;2022-08-19T10:43:31;4.50;;;4.13;;
6452;SDS011;3259;51.080;13.712;2022-08-19T10:46:21;4.03;;;3.80;;
6452;SDS011;3259;51.080;13.712;2022-08-19T10:49:12;5.10;;;4.78;;
6452;SDS011;3259;51.080;13.712;2022-08-19T10:52:03;4.72;;;4.25;;
6452;SDS011;3259;51.080;13.712;2022-08-19T10:55:19;3.67;;;3.38;;
6452;SDS011;3259;51.080;13.712;2022-08-19T10:58:26;3.55;;;3.28;;
6452;SDS011;3259;51.080;13.712;2022-08-19T11:01:15;5.03;;;4.63;;
6452;SDS011;3259;51.080;13.712;2022-08-19T11:04:04;4.00;;;3.80;;
6452;SDS011;3259;51.080;13.712;2022-08-19T11:06:56;3.88;;;3.58;;
6452;SDS011;3259;51.080;13.712;2022-08-19T11:09:45;4.18;;;3.88;;
6452;SDS011;3259;51.080;13.712;2022-08-19T11:12:34;5.22;;;4.43;;
6452;SDS011;3259;51.080;13.712;2022-08-19T11:15:25;4.20;;;3.92;;
6452;SDS011;3259;51.080;13.712;2022-08-19T11:18:15;4.95;;;4.50;;
6452;SDS011;3259;51.080;13.712;2022-08-19T11:21:10;4.43;;;4.13;;
6452;SDS011;3259;51.080;13.712;2022-08-19T11:24:02;9.02;;;4.22;;
6452;SDS011;3259;51.080;13.712;2022-08-19T11:26:53;4.38;;;4.05;;
6452;SDS011;3259;51.080;13.712;2022-08-19T11:29:45;4.68;;;4.38;;
6452;SDS011;3259;51.080;13.712;2022-08-19T11:32:33;4.57;;;4.18;;
6452;SDS011;3259;51.080;13.712;2022-08-19T11:35:22;4.57;;;4.28;;
6452;SDS011;3259;51.080;13.712;2022-08-19T11:38:11;4.65;;;4.25;;
6452;SDS011;3259;51.080;13.712;2022-08-19T11:41:03;4.88;;;4.47;;
6452;SDS011;3259;51.080;13.712;2022-08-19T11:43:53;5.05;;;4.63;;
6452;SDS011;3259;51.080;13.712;2022-08-19T11:46:43;4.90;;;4.55;;
6452;SDS011;3259;51.080;13.712;2022-08-19T11:49:32;4.53;;;4.13;;
6452;SDS011;3259;51.080;13.712;2022-08-19T11:52:22;5.47;;;5.00;;
6452;SDS011;3259;51.080;13.712;2022-08-19T11:55:11;5.50;;;4.72;;
6452;SDS011;3259;51.080;13.712;2022-08-19T11:58:02;4.97;;;4.47;;
6452;SDS011;3259;51.080;13.712;2022-08-19T12:01:05;9.15;;;5.22;;
6452;SDS011;3259;51.080;13.712;2022-08-19T12:03:54;9.50;;;5.70;;
6452;SDS011;3259;51.080;13.712;2022-08-19T12:06:44;6.97;;;5.15;;
6452;SDS011;3259;51.080;13.712;2022-08-19T12:09:33;6.53;;;5.68;;
6452;SDS011;3259;51.080;13.712;2022-08-19T12:12:27;5.47;;;5.07;;
6452;SDS011;3259;51.080;13.712;2022-08-19T12:15:17;5.63;;;4.93;;
6452;SDS011;3259;51.080;13.712;2022-08-19T12:18:06;6.65;;;6.03;;
6452;SDS011;3259;51.080;13.712;2022-08-19T12:20:54;6.78;;;6.13;;
6452;SDS011;3259;51.080;13.712;2022-08-19T12:23:43;6.70;;;6.20;;
6452;SDS011;3259;51.080;13.712;2022-08-19T12:26:33;6.28;;;5.68;;
6452;SDS011;3259;51.080;13.712;2022-08-19T12:29:39;6.78;;;6.20;;
6452;SDS011;3259;51.080;13.712;2022-08-19T12:32:29;8.07;;;7.38;;
6452;SDS011;3259;51.080;13.712;2022-08-19T12:35:18;7.40;;;6.70;;
6452;SDS011;3259;51.080;13.712;2022-08-19T12:38:07;7.85;;;7.15;;
6452;SDS011;3259;51.080;13.712;2022-08-19T12:40:56;7.45;;;6.88;;
6452;SDS011;3259;51.080;13.712;2022-08-19T12:43:46;8.73;;;6.88;;
6452;SDS011;3259;51.080;13.712;2022-08-19T12:46:35;7.47;;;6.90;;
6452;SDS011;3259;51.080;13.712;2022-08-19T12:49:26;8.23;;;7.43;;
6452;SDS011;3259;51.080;13.712;2022-08-19T12:52:35;7.78;;;7.07;;
6452;SDS011;3259;51.080;13.712;2022-08-19T12:55:29;7.63;;;6.93;;
6452;SDS011;3259;51.080;13.712;2022-08-19T12:58:18;8.55;;;7.63;;
6452;SDS011;3259;51.080;13.712;2022-08-19T13:01:14;8.13;;;7.13;;
6452;SDS011;3259;51.080;13.712;2022-08-19T13:04:08;7.68;;;6.82;;
6452;SDS011;3259;51.080;13.712;2022-08-19T13:06:58;7.60;;;6.90;;
6452;SDS011;3259;51.080;13.712;2022-08-19T13:09:46;7.50;;;6.80;;
6452;SDS011;3259;51.080;13.712;2022-08-19T13:12:35;7.82;;;7.13;;
6452;SDS011;3259;51.080;13.712;2022-08-19T13:15:23;7.78;;;6.43;;
6452;SDS011;3259;51.080;13.712;2022-08-19T13:18:14;9.25;;;7.15;;
6452;SDS011;3259;51.080;13.712;2022-08-19T13:21:03;8.73;;;7.85;;
6452;SDS011;3259;51.080;13.712;2022-08-19T13:23:54;7.93;;;7.32;;
6452;SDS011;3259;51.080;13.712;2022-08-19T13:26:42;7.72;;;6.95;;
6452;SDS011;3259;51.080;13.712;2022-08-19T13:29:31;8.98;;;7.80;;
6452;SDS011;3259;51.080;13.712;2022-08-19T13:32:37;7.97;;;7.20;;
6452;SDS011;3259;51.080;13.712;2022-08-19T13:35:45;11.60;;;10.18;;
6452;SDS011;3259;51.080;13.712;2022-08-19T13:38:34;12.32;;;11.02;;
6452;SDS011;3259;51.080;13.712;2022-08-19T13:41:25;14.45;;;11.55;;
6452;SDS011;3259;51.080;13.712;2022-08-19T13:44:14;12.57;;;10.38;;
6452;SDS011;3259;51.080;13.712;2022-08-19T13:47:05;13.40;;;10.35;;
6452;SDS011;3259;51.080;13.712;2022-08-19T13:49:54;14.25;;;10.75;;
6452;SDS011;3259;51.080;13.712;2022-08-19T13:52:43;12.68;;;10.98;;
6452;SDS011;3259;51.080;13.712;2022-08-19T13:55:32;13.05;;;11.70;;
6452;SDS011;3259;51.080;13.712;2022-08-19T13:58:22;13.68;;;11.57;;
6452;SDS011;3259;51.080;13.712;2022-08-19T14:01:10;15.27;;;11.82;;
6452;SDS011;3259;51.080;13.712;2022-08-19T14:03:59;13.35;;;11.57;;
6452;SDS011;3259;51.080;13.712;2022-08-19T14:06:47;16.15;;;11.75;;
6452;SDS011;3259;51.080;13.712;2022-08-19T14:09:36;16.48;;;12.38;;
6452;SDS011;3259;51.080;13.712;2022-08-19T14:12:25;15.52;;;12.73;;
6452;SDS011;3259;51.080;13.712;2022-08-19T14:15:15;17.13;;;13.93;;
6452;SDS011;3259;51.080;13.712;2022-08-19T14:18:04;16.38;;;12.88;;
6452;SDS011;3259;51.080;13.712;2022-08-19T14:20:53;15.73;;;13.15;;
6452;SDS011;3259;51.080;13.712;2022-08-19T14:23:44;16.30;;;14.60;;
6452;SDS011;3259;51.080;13.712;2022-08-19T14:26:33;15.90;;;14.30;;
6452;SDS011;3259;51.080;13.712;2022-08-19T14:29:21;19.52;;;16.13;;
6452;SDS011;3259;51.080;13.712;2022-08-19T14:32:11;18.30;;;14.23;;
6452;SDS011;3259;51.080;13.712;2022-08-19T14:35:02;15.90;;;13.98;;
6452;SDS011;3259;51.080;13.712;2022-08-19T14:37:52;17.27;;;13.90;;
6452;SDS011;3259;51.080;13.712;2022-08-19T14:40:42;17.35;;;13.70;;
6452;SDS011;3259;51.080;13.712;2022-08-19T14:43:31;15.70;;;13.35;;
6452;SDS011;3259;51.080;13.712;2022-08-19T14:46:20;17.65;;;14.77;;
6452;SDS011;3259;51.080;13.712;2022-08-19T14:49:12;16.13;;;13.48;;
6452;SDS011;3259;51.080;13.712;2022-08-19T14:52:00;18.92;;;13.73;;
6452;SDS011;3259;51.080;13.712;2022-08-19T14:54:50;20.75;;;12.82;;
6452;SDS011;3259;51.080;13.712;2022-08-19T14:57:40;17.60;;;12.98;;
6452;SDS011;3259;51.080;13.712;2022-08-19T15:00:28;11.73;;;10.32;;
6452;SDS011;3259;51.080;13.712;2022-08-19T15:03:17;14.55;;;9.48;;
6452;SDS011;3259;51.080;13.712;2022-08-19T15:06:08;10.35;;;9.35;;
6452;SDS011;3259;51.080;13.712;2022-08-19T15:08:59;9.52;;;8.63;;
6452;SDS011;3259;51.080;13.712;2022-08-19T15:11:50;13.95;;;9.07;;
6452;SDS011;3259;51.080;13.712;2022-08-19T15:14:38;10.27;;;7.70;;
6452;SDS011;3259;51.080;13.712;2022-08-19T15:17:28;8.95;;;7.97;;
6452;SDS011;3259;51.080;13.712;2022-08-19T15:20:31;12.13;;;8.90;;
6452;SDS011;3259;51.080;13.712;2022-08-19T15:23:21;11.43;;;8.60;;
6452;SDS011;3259;51.080;13.712;2022-08-19T15:26:10;8.55;;;7.80;;
6452;SDS011;3259;51.080;13.712;2022-08-19T15:29:01;8.95;;;8.15;;
6452;SDS011;3259;51.080;13.712;2022-08-19T15:31:50;8.80;;;7.60;;
6452;SDS011;3259;51.080;13.712;2022-08-19T15:34:42;8.00;;;7.15;;
6452;SDS011;3259;51.080;13.712;2022-08-19T15:37:32;8.88;;;7.97;;
6452;SDS011;3259;51.080;13.712;2022-08-19T15:40:25;8.48;;;7.57;;
6452;SDS011;3259;51.080;13.712;2022-08-19T15:43:14;8.70;;;6.90;;
6452;SDS011;3259;51.080;13.712;2022-08-19T15:46:03;8.38;;;7.38;;
6452;SDS011;3259;51.080;13.712;2022-08-19T15:48:52;8.73;;;7.93;;
6452;SDS011;3259;51.080;13.712;2022-08-19T15:51:47;8.00;;;7.20;;
6452;SDS011;3259;51.080;13.712;2022-08-19T15:54:37;7.93;;;7.13;;
6452;SDS011;3259;51.080;13.712;2022-08-19T15:57:27;11.60;;;7.75;;
6452;SDS011;3259;51.080;13.712;2022-08-19T16:00:36;8.60;;;7.80;;
6452;SDS011;3259;51.080;13.712;2022-08-19T16:03:42;8.75;;;7.07;;
6452;SDS011;3259;51.080;13.712;2022-08-19T16:06:50;10.50;;;7.43;;
6452;SDS011;3259;51.080;13.712;2022-08-19T16:09:40;10.20;;;8.15;;
6452;SDS011;3259;51.080;13.712;2022-08-19T16:12:30;8.70;;;7.80;;
6452;SDS011;3259;51.080;13.712;2022-08-19T16:15:18;15.73;;;7.15;;
6452;SDS011;3259;51.080;13.712;2022-08-19T16:18:07;13.35;;;8.52;;
6452;SDS011;3259;51.080;13.712;2022-08-19T16:20:56;12.93;;;10.57;;
6452;SDS011;3259;51.080;13.712;2022-08-19T16:23:44;15.15;;;10.77;;
6452;SDS011;3259;51.080;13.712;2022-08-19T16:26:33;61.53;;;13.43;;
6452;SDS011;3259;51.080;13.712;2022-08-19T16:29:23;18.75;;;12.15;;
6452;SDS011;3259;51.080;13.712;2022-08-19T16:32:20;14.55;;;11.15;;
6452;SDS011;3259;51.080;13.712;2022-08-19T16:35:09;13.52;;;12.13;;
6452;SDS011;3259;51.080;13.712;2022-08-19T16:37:58;15.75;;;11.95;;
6452;SDS011;3259;51.080;13.712;2022-08-19T16:40:46;14.38;;;11.85;;
6452;SDS011;3259;51.080;13.712;2022-08-19T16:43:39;13.57;;;12.27;;
6452;SDS011;3259;51.080;13.712;2022-08-19T16:46:30;17.25;;;14.07;;
6452;SDS011;3259;51.080;13.712;2022-08-19T16:49:22;29.60;;;22.33;;
6452;SDS011;3259;51.080;13.712;2022-08-19T16:52:32;24.08;;;17.17;;
6452;SDS011;3259;51.080;13.712;2022-08-19T16:55:21;28.17;;;16.75;;
6452;SDS011;3259;51.080;13.712;2022-08-19T16:58:10;35.30;;;17.42;;
6452;SDS011;3259;51.080;13.712;2022-08-19T17:00:59;27.10;;;16.17;;
6452;SDS011;3259;51.080;13.712;2022-08-19T17:03:51;51.20;;;21.13;;
6452;SDS011;3259;51.080;13.712;2022-08-19T17:06:40;43.30;;;21.00;;
6452;SDS011;3259;51.080;13.712;2022-08-19T17:09:30;21.25;;;14.75;;
6452;SDS011;3259;51.080;13.712;2022-08-19T17:12:19;20.92;;;13.88;;
6452;SDS011;3259;51.080;13.712;2022-08-19T17:15:16;14.95;;;12.50;;
6452;SDS011;3259;51.080;13.712;2022-08-19T17:18:05;14.73;;;11.73;;
6452;SDS011;3259;51.080;13.712;2022-08-19T17:20:56;13.55;;;11.13;;